sensor_id;sensor_type;location;lat;lon;timestamp;pressure;altitude;pressure_sealevel;temperature;humidity
71504;BME280;59323;50.874;7.028;2024-01-11T00:00:22;102614.34;;;-5.79;100.00
71504;BME280;59323;50.874;7.028;2024-01-11T00:02:48;102624.13;;;-5.80;100.00
71504;BME280;59323;50.874;7.028;2024-01-11T00:05:13;102623.53;;;-5.82;100.00
71504;BME280;59323;50.874;7.028;2024-01-11T00:07:38;102629.84;;;-5.83;100.00
71504;BME280;59323;50.874;7.028;2024-01-11T00:10:04;102627.56;;;-5.86;100.00
71504;BME280;59323;50.874;7.028;2024-01-11T00:12:29;102623.31;;;-5.87;100.00
71504;BME280;59323;50.874;7.028;2024-01-11T00:14:56;102625.34;;;-5.89;100.00
71504;BME280;59323;50.874;7.028;2024-01-11T00:17:24;102627.41;;;-5.91;100.00
71504;BME280;59323;50.874;7.028;2024-01-11T00:19:49;102623.97;;;-5.91;100.00
71504;BME280;59323;50.874;7.028;2024-01-11T00:22:15;102619.47;;;-5.91;100.00
71504;BME280;59323;50.874;7.028;2024-01-11T00:24:40;102620.72;;;-5.93;100.00
71504;BME280;59323;50.874;7.028;2024-01-11T00:27:06;102613.56;;;-5.93;100.00
71504;BME280;59323;50.874;7.028;2024-01-11T00:29:32;102618.47;;;-5.96;100.00
71504;BME280;59323;50.874;7.028;2024-01-11T00:31:57;102615.63;;;-5.95;100.00
71504;BME280;59323;50.874;7.028;2024-01-11T00:34:23;102617.88;;;-5.98;100.00
71504;BME280;59323;50.874;7.028;2024-01-11T00:36:48;102621.31;;;-5.98;100.00
71504;BME280;59323;50.874;7.028;2024-01-11T00:39:14;102627.63;;;-5.99;100.00
71504;BME280;59323;50.874;7.028;2024-01-11T00:41:39;102630.50;;;-6.00;100.00
71504;BME280;59323;50.874;7.028;2024-01-11T00:44:05;102631.72;;;-6.03;100.00
71504;BME280;59323;50.874;7.028;2024-01-11T00:46:30;102619.72;;;-6.05;100.00
71504;BME280;59323;50.874;7.028;2024-01-11T00:48:56;102623.19;;;-6.05;100.00
71504;BME280;59323;50.874;7.028;2024-01-11T00:51:21;102624.19;;;-6.06;100.00
71504;BME280;59323;50.874;7.028;2024-01-11T00:53:47;102638.44;;;-6.07;100.00
71504;BME280;59323;50.874;7.028;2024-01-11T00:56:19;102636.00;;;-6.09;100.00
71504;BME280;59323;50.874;7.028;2024-01-11T00:58:45;102643.34;;;-6.11;100.00
71504;BME280;59323;50.874;7.028;2024-01-11T01:01:11;102644.34;;;-6.12;100.00
71504;BME280;59323;50.874;7.028;2024-01-11T01:03:37;102636.84;;;-6.15;100.00
71504;BME280;59323;50.874;7.028;2024-01-11T01:06:03;102641.31;;;-6.15;100.00
71504;BME280;59323;50.874;7.028;2024-01-11T01:08:29;102632.75;;;-6.17;100.00
71504;BME280;59323;50.874;7.028;2024-01-11T01:10:55;102634.41;;;-6.16;100.00
71504;BME280;59323;50.874;7.028;2024-01-11T01:13:20;102634.59;;;-6.18;100.00
71504;BME280;59323;50.874;7.028;2024-01-11T01:15:46;102631.97;;;-6.18;100.00
71504;BME280;59323;50.874;7.028;2024-01-11T01:18:11;102640.09;;;-6.19;100.00
71504;BME280;59323;50.874;7.028;2024-01-11T01:20:37;102640.09;;;-6.19;100.00
71504;BME280;59323;50.874;7.028;2024-01-11T01:23:02;102642.13;;;-6.21;100.00
71504;BME280;59323;50.874;7.028;2024-01-11T01:25:28;102643.75;;;-6.20;100.00
71504;BME280;59323;50.874;7.028;2024-01-11T01:27:53;102629.94;;;-6.22;100.00
71504;BME280;59323;50.874;7.028;2024-01-11T01:30:20;102631.97;;;-6.24;100.00
71504;BME280;59323;50.874;7.028;2024-01-11T01:32:45;102638.06;;;-6.24;100.00
71504;BME280;59323;50.874;7.028;2024-01-11T01:35:10;102637.47;;;-6.26;100.00
71504;BME280;59323;50.874;7.028;2024-01-11T01:37:36;102643.75;;;-6.27;100.00
71504;BME280;59323;50.874;7.028;2024-01-11T01:40:01;102651.91;;;-6.28;100.00
71504;BME280;59323;50.874;7.028;2024-01-11T01:42:26;102653.94;;;-6.30;100.00
71504;BME280;59323;50.874;7.028;2024-01-11T01:44:52;102650.28;;;-6.29;100.00
71504;BME280;59323;50.874;7.028;2024-01-11T01:47:17;102653.13;;;-6.31;100.00
71504;BME280;59323;50.874;7.028;2024-01-11T01:49:44;102650.69;;;-6.32;100.00
71504;BME280;59323;50.874;7.028;2024-01-11T01:52:10;102649.88;;;-6.33;100.00
71504;BME280;59323;50.874;7.028;2024-01-11T01:54:36;102654.34;;;-6.33;100.00
71504;BME280;59323;50.874;7.028;2024-01-11T01:57:02;102653.75;;;-6.35;100.00
71504;BME280;59323;50.874;7.028;2024-01-11T01:59:29;102659.03;;;-6.35;100.00
71504;BME280;59323;50.874;7.028;2024-01-11T02:01:55;102659.03;;;-6.35;100.00
71504;BME280;59323;50.874;7.028;2024-01-11T02:04:21;102667.78;;;-6.35;100.00
71504;BME280;59323;50.874;7.028;2024-01-11T02:06:48;102659.66;;;-6.40;100.00
71504;BME280;59323;50.874;7.028;2024-01-11T02:09:16;102668.19;;;-6.38;100.00
71504;BME280;59323;50.874;7.028;2024-01-11T02:11:44;102672.66;;;-6.38;100.00
71504;BME280;59323;50.874;7.028;2024-01-11T02:14:10;102666.75;;;-6.41;100.00
71504;BME280;59323;50.874;7.028;2024-01-11T02:16:36;102665.34;;;-6.43;100.00
71504;BME280;59323;50.874;7.028;2024-01-11T02:19:02;102663.50;;;-6.43;100.00
71504;BME280;59323;50.874;7.028;2024-01-11T02:21:28;102673.06;;;-6.42;100.00
71504;BME280;59323;50.874;7.028;2024-01-11T02:24:04;102664.13;;;-6.41;100.00
71504;BME280;59323;50.874;7.028;2024-01-11T02:26:30;102665.13;;;-6.42;100.00
71504;BME280;59323;50.874;7.028;2024-01-11T02:28:56;102665.13;;;-6.42;100.00
71504;BME280;59323;50.874;7.028;2024-01-11T02:31:22;102656.78;;;-6.45;100.00
71504;BME280;59323;50.874;7.028;2024-01-11T02:33:48;102660.47;;;-6.46;100.00
71504;BME280;59323;50.874;7.028;2024-01-11T02:36:14;102664.13;;;-6.47;100.00
71504;BME280;59323;50.874;7.028;2024-01-11T02:38:41;102672.06;;;-6.47;100.00
71504;BME280;59323;50.874;7.028;2024-01-11T02:41:08;102666.16;;;-6.49;100.00
71504;BME280;59323;50.874;7.028;2024-01-11T02:43:33;102661.88;;;-6.50;100.00
71504;BME280;59323;50.874;7.028;2024-01-11T02:46:04;102659.25;;;-6.50;100.00
71504;BME280;59323;50.874;7.028;2024-01-11T02:48:29;102655.75;;;-6.51;100.00
71504;BME280;59323;50.874;7.028;2024-01-11T02:50:58;102650.47;;;-6.51;100.00
71504;BME280;59323;50.874;7.028;2024-01-11T02:53:23;102651.47;;;-6.52;100.00
71504;BME280;59323;50.874;7.028;2024-01-11T02:55:52;102655.56;;;-6.49;100.00
71504;BME280;59323;50.874;7.028;2024-01-11T02:58:17;102654.13;;;-6.52;100.00
71504;BME280;59323;50.874;7.028;2024-01-11T03:00:42;102648.47;;;-6.49;100.00
71504;BME280;59323;50.874;7.028;2024-01-11T03:03:08;102648.47;;;-6.49;100.00
71504;BME280;59323;50.874;7.028;2024-01-11T03:05:33;102654.94;;;-6.51;100.00
71504;BME280;59323;50.874;7.028;2024-01-11T03:07:59;102648.47;;;-6.49;100.00
71504;BME280;59323;50.874;7.028;2024-01-11T03:10:31;102655.56;;;-6.49;100.00
71504;BME280;59323;50.874;7.028;2024-01-11T03:12:57;102651.09;;;-6.49;100.00
71504;BME280;59323;50.874;7.028;2024-01-11T03:15:23;102649.06;;;-6.47;100.00
71504;BME280;59323;50.874;7.028;2024-01-11T03:17:48;102644.81;;;-6.48;100.00
71504;BME280;59323;50.874;7.028;2024-01-11T03:20:13;102640.53;;;-6.49;100.00
71504;BME280;59323;50.874;7.028;2024-01-11T03:22:45;102637.69;;;-6.47;100.00
71504;BME280;59323;50.874;7.028;2024-01-11T03:25:10;102641.91;;;-6.53;100.00
71504;BME280;59323;50.874;7.028;2024-01-11T03:27:35;102633.78;;;-6.51;100.00
71504;BME280;59323;50.874;7.028;2024-01-11T03:30:01;102634.19;;;-6.54;100.00
71504;BME280;59323;50.874;7.028;2024-01-11T03:32:26;102630.72;;;-6.55;100.00
71504;BME280;59323;50.874;7.028;2024-01-11T03:34:52;102618.53;;;-6.56;100.00
71504;BME280;59323;50.874;7.028;2024-01-11T03:37:17;102625.84;;;-6.58;100.00
71504;BME280;59323;50.874;7.028;2024-01-11T03:39:42;102624.22;;;-6.59;100.00
71504;BME280;59323;50.874;7.028;2024-01-11T03:42:08;102616.50;;;-6.60;100.00
71504;BME280;59323;50.874;7.028;2024-01-11T03:44:33;102625.03;;;-6.58;100.00
71504;BME280;59323;50.874;7.028;2024-01-11T03:46:58;102632.16;;;-6.59;100.00
71504;BME280;59323;50.874;7.028;2024-01-11T03:49:24;102627.69;;;-6.58;100.00
71504;BME280;59323;50.874;7.028;2024-01-11T03:51:49;102630.31;;;-6.58;100.00
71504;BME280;59323;50.874;7.028;2024-01-11T03:54:14;102626.47;;;-6.62;100.00
71504;BME280;59323;50.874;7.028;2024-01-11T03:56:40;102639.28;;;-6.59;100.00
71504;BME280;59323;50.874;7.028;2024-01-11T03:59:05;102635.00;;;-6.60;100.00
71504;BME280;59323;50.874;7.028;2024-01-11T04:01:31;102640.09;;;-6.59;100.00
71504;BME280;59323;50.874;7.028;2024-01-11T04:03:57;102634.00;;;-6.59;100.00
71504;BME280;59323;50.874;7.028;2024-01-11T04:06:22;102635.00;;;-6.60;100.00
71504;BME280;59323;50.874;7.028;2024-01-11T04:08:49;102637.03;;;-6.62;100.00
71504;BME280;59323;50.874;7.028;2024-01-11T04:11:15;102637.25;;;-6.64;100.00
71504;BME280;59323;50.874;7.028;2024-01-11T04:13:40;102633.56;;;-6.63;100.00
71504;BME280;59323;50.874;7.028;2024-01-11T04:16:06;102656.75;;;-6.65;100.00
71504;BME280;59323;50.874;7.028;2024-01-11T04:18:32;102661.44;;;-6.67;100.00
71504;BME280;59323;50.874;7.028;2024-01-11T04:20:57;102658.78;;;-6.67;100.00
71504;BME280;59323;50.874;7.028;2024-01-11T04:23:23;102663.47;;;-6.69;100.00
71504;BME280;59323;50.874;7.028;2024-01-11T04:25:48;102661.63;;;-6.68;100.00
71504;BME280;59323;50.874;7.028;2024-01-11T04:28:13;102666.09;;;-6.69;100.00
71504;BME280;59323;50.874;7.028;2024-01-11T04:30:39;102661.22;;;-6.72;100.00
71504;BME280;59323;50.874;7.028;2024-01-11T04:33:04;102653.28;;;-6.72;100.00
71504;BME280;59323;50.874;7.028;2024-01-11T04:35:29;102654.72;;;-6.76;100.00
71504;BME280;59323;50.874;7.028;2024-01-11T04:37:54;102667.53;;;-6.73;100.00
71504;BME280;59323;50.874;7.028;2024-01-11T04:40:20;102665.91;;;-6.74;100.00
71504;BME280;59323;50.874;7.028;2024-01-11T04:42:45;102670.97;;;-6.79;100.00
71504;BME280;59323;50.874;7.028;2024-01-11T04:45:11;102679.53;;;-6.77;100.00
71504;BME280;59323;50.874;7.028;2024-01-11T04:47:36;102681.53;;;-6.79;100.00
71504;BME280;59323;50.874;7.028;2024-01-11T04:50:04;102678.28;;;-6.81;100.00
71504;BME280;59323;50.874;7.028;2024-01-11T04:52:29;102676.06;;;-6.84;100.00
71504;BME280;59323;50.874;7.028;2024-01-11T04:54:54;102678.50;;;-6.83;100.00
71504;BME280;59323;50.874;7.028;2024-01-11T04:57:20;102682.16;;;-6.84;100.00
71504;BME280;59323;50.874;7.028;2024-01-11T04:59:45;102686.81;;;-6.86;100.00
71504;BME280;59323;50.874;7.028;2024-01-11T05:02:10;102679.50;;;-6.90;100.00
71504;BME280;59323;50.874;7.028;2024-01-11T05:04:36;102687.63;;;-6.85;100.00
71504;BME280;59323;50.874;7.028;2024-01-11T05:07:01;102689.66;;;-6.87;100.00
71504;BME280;59323;50.874;7.028;2024-01-11T05:09:27;102688.22;;;-6.90;100.00
71504;BME280;59323;50.874;7.028;2024-01-11T05:11:52;102689.44;;;-6.92;100.00
71504;BME280;59323;50.874;7.028;2024-01-11T05:14:17;102686.00;;;-6.93;100.00
71504;BME280;59323;50.874;7.028;2024-01-11T05:16:43;102692.50;;;-6.95;100.00
71504;BME280;59323;50.874;7.028;2024-01-11T05:19:08;102685.78;;;-6.98;100.00
71504;BME280;59323;50.874;7.028;2024-01-11T05:21:34;102691.25;;;-6.99;100.00
71504;BME280;59323;50.874;7.028;2024-01-11T05:23:59;102691.47;;;-7.01;100.00
71504;BME280;59323;50.874;7.028;2024-01-11T05:26:25;102684.53;;;-7.02;100.00
71504;BME280;59323;50.874;7.028;2024-01-11T05:28:50;102690.84;;;-7.03;100.00
71504;BME280;59323;50.874;7.028;2024-01-11T05:31:16;102688.41;;;-7.05;100.00
71504;BME280;59323;50.874;7.028;2024-01-11T05:33:41;102679.66;;;-7.05;100.00
71504;BME280;59323;50.874;7.028;2024-01-11T05:36:07;102689.41;;;-7.06;100.00
71504;BME280;59323;50.874;7.028;2024-01-11T05:38:33;102693.88;;;-7.06;100.00
71504;BME280;59323;50.874;7.028;2024-01-11T05:40:58;102701.81;;;-7.06;100.00
71504;BME280;59323;50.874;7.028;2024-01-11T05:43:24;102701.00;;;-7.07;100.00
71504;BME280;59323;50.874;7.028;2024-01-11T05:45:50;102705.66;;;-7.09;100.00
71504;BME280;59323;50.874;7.028;2024-01-11T05:48:16;102712.97;;;-7.11;100.00
71504;BME280;59323;50.874;7.028;2024-01-11T05:50:45;102712.72;;;-7.16;100.00
71504;BME280;59323;50.874;7.028;2024-01-11T05:53:11;102706.81;;;-7.18;100.00
71504;BME280;59323;50.874;7.028;2024-01-11T05:55:37;102724.28;;;-7.17;100.00
71504;BME280;59323;50.874;7.028;2024-01-11T05:58:03;102712.91;;;-7.17;100.00
71504;BME280;59323;50.874;7.028;2024-01-11T06:00:29;102713.94;;;-7.18;100.00
71504;BME280;59323;50.874;7.028;2024-01-11T06:02:54;102717.38;;;-7.18;100.00
71504;BME280;59323;50.874;7.028;2024-01-11T06:05:20;102720.22;;;-7.19;100.00
71504;BME280;59323;50.874;7.028;2024-01-11T06:07:45;102712.09;;;-7.18;100.00
71504;BME280;59323;50.874;7.028;2024-01-11T06:10:10;102714.75;;;-7.18;100.00
71504;BME280;59323;50.874;7.028;2024-01-11T06:12:36;102721.22;;;-7.20;100.00
71504;BME280;59323;50.874;7.028;2024-01-11T06:15:02;102736.88;;;-7.19;100.00
71504;BME280;59323;50.874;7.028;2024-01-11T06:17:27;102744.81;;;-7.19;100.00
71504;BME280;59323;50.874;7.028;2024-01-11T06:19:53;102738.69;;;-7.19;100.00
71504;BME280;59323;50.874;7.028;2024-01-11T06:22:19;102736.25;;;-7.21;100.00
71504;BME280;59323;50.874;7.028;2024-01-11T06:24:45;102739.91;;;-7.22;100.00
71504;BME280;59323;50.874;7.028;2024-01-11T06:27:10;102753.13;;;-7.22;100.00
71504;BME280;59323;50.874;7.028;2024-01-11T06:29:35;102745.19;;;-7.22;100.00
71504;BME280;59323;50.874;7.028;2024-01-11T06:32:01;102749.25;;;-7.26;100.00
71504;BME280;59323;50.874;7.028;2024-01-11T06:34:27;102754.13;;;-7.23;100.00
71504;BME280;59323;50.874;7.028;2024-01-11T06:36:54;102761.84;;;-7.21;100.00
71504;BME280;59323;50.874;7.028;2024-01-11T06:39:19;102750.06;;;-7.25;100.00
71504;BME280;59323;50.874;7.028;2024-01-11T06:41:45;102748.63;;;-7.28;100.00
71504;BME280;59323;50.874;7.028;2024-01-11T06:44:10;102741.50;;;-7.27;100.00
71504;BME280;59323;50.874;7.028;2024-01-11T06:46:35;102750.44;;;-7.28;100.00
71504;BME280;59323;50.874;7.028;2024-01-11T06:49:10;102758.38;;;-7.28;100.00
71504;BME280;59323;50.874;7.028;2024-01-11T06:51:36;102761.81;;;-7.28;100.00
71504;BME280;59323;50.874;7.028;2024-01-11T06:54:02;102765.28;;;-7.27;100.00
71504;BME280;59323;50.874;7.028;2024-01-11T16:29:31;102843.72;;;-1.90;94.77
71504;BME280;59323;50.874;7.028;2024-01-11T16:31:57;102856.72;;;-1.82;95.06
71504;BME280;59323;50.874;7.028;2024-01-11T16:34:23;102872.47;;;-1.80;94.75
71504;BME280;59323;50.874;7.028;2024-01-11T16:37:06;102848.22;;;-1.90;95.76
71504;BME280;59323;50.874;7.028;2024-01-11T16:39:32;102830.28;;;-1.95;95.02
71504;BME280;59323;50.874;7.028;2024-01-11T16:41:57;102842.22;;;-1.86;94.96
71504;BME280;59323;50.874;7.028;2024-01-11T16:44:31;102834.97;;;-1.97;95.63
71504;BME280;59323;50.874;7.028;2024-01-11T16:47:11;102836.72;;;-2.03;95.20
71504;BME280;59323;50.874;7.028;2024-01-11T16:49:43;102844.69;;;-2.03;95.54
71504;BME280;59323;50.874;7.028;2024-01-11T16:52:35;102834.34;;;-1.93;94.94
71504;BME280;59323;50.874;7.028;2024-01-11T16:55:04;102833.00;;;-2.02;94.88
71504;BME280;59323;50.874;7.028;2024-01-11T16:57:40;102826.25;;;-2.16;95.47
71504;BME280;59323;50.874;7.028;2024-01-11T17:00:09;102840.28;;;-2.09;94.25
71504;BME280;59323;50.874;7.028;2024-01-11T17:02:42;102834.59;;;-2.12;94.75
71504;BME280;59323;50.874;7.028;2024-01-11T17:05:11;102849.66;;;-2.06;96.69
71504;BME280;59323;50.874;7.028;2024-01-11T17:07:36;102834.25;;;-2.16;94.60
71504;BME280;59323;50.874;7.028;2024-01-11T17:10:02;102821.13;;;-2.29;95.68
71504;BME280;59323;50.874;7.028;2024-01-11T17:12:28;102817.75;;;-2.36;96.48
71504;BME280;59323;50.874;7.028;2024-01-11T17:14:56;102840.56;;;-2.29;95.58
71504;BME280;59323;50.874;7.028;2024-01-11T17:17:21;102822.78;;;-2.46;97.47
71504;BME280;59323;50.874;7.028;2024-01-11T17:19:47;102824.16;;;-2.56;97.67
71504;BME280;59323;50.874;7.028;2024-01-11T17:22:15;102850.44;;;-2.47;97.37
71504;BME280;59323;50.874;7.028;2024-01-11T17:24:41;102844.44;;;-2.61;98.16
71504;BME280;59323;50.874;7.028;2024-01-11T17:27:06;102848.16;;;-2.62;97.31
71504;BME280;59323;50.874;7.028;2024-01-11T17:29:36;102857.75;;;-2.61;98.32
71504;BME280;59323;50.874;7.028;2024-01-11T17:32:03;102841.94;;;-2.74;98.69
71504;BME280;59323;50.874;7.028;2024-01-11T17:34:29;102852.81;;;-2.76;98.86
71504;BME280;59323;50.874;7.028;2024-01-11T17:36:58;102843.06;;;-2.82;99.53
71504;BME280;59323;50.874;7.028;2024-01-11T17:39:23;102840.03;;;-2.85;99.46
71504;BME280;59323;50.874;7.028;2024-01-11T17:41:49;102854.66;;;-2.76;99.49
71504;BME280;59323;50.874;7.028;2024-01-11T17:44:15;102849.06;;;-2.87;99.30
71504;BME280;59323;50.874;7.028;2024-01-11T17:46:43;102866.78;;;-2.80;99.90
71504;BME280;59323;50.874;7.028;2024-01-11T17:49:09;102869.16;;;-2.91;99.98
71504;BME280;59323;50.874;7.028;2024-01-11T17:51:34;102866.28;;;-2.89;100.00
71504;BME280;59323;50.874;7.028;2024-01-11T17:54:00;102877.34;;;-2.92;100.00
71504;BME280;59323;50.874;7.028;2024-01-11T17:56:25;102889.03;;;-2.93;100.00
71504;BME280;59323;50.874;7.028;2024-01-11T17:58:51;102886.00;;;-2.97;100.00
71504;BME280;59323;50.874;7.028;2024-01-11T18:01:24;102897.06;;;-3.00;100.00
71504;BME280;59323;50.874;7.028;2024-01-11T18:03:50;102896.41;;;-2.95;99.93
71504;BME280;59323;50.874;7.028;2024-01-11T18:06:15;102883.78;;;-3.00;100.00
71504;BME280;59323;50.874;7.028;2024-01-11T18:08:41;102872.78;;;-3.03;100.00
71504;BME280;59323;50.874;7.028;2024-01-11T18:11:14;102873.44;;;-3.08;100.00
71504;BME280;59323;50.874;7.028;2024-01-11T18:13:40;102893.44;;;-3.05;100.00
71504;BME280;59323;50.874;7.028;2024-01-11T18:16:05;102884.06;;;-3.08;100.00
71504;BME280;59323;50.874;7.028;2024-01-11T18:18:34;102874.47;;;-3.09;100.00
71504;BME280;59323;50.874;7.028;2024-01-11T18:21:00;102871.22;;;-3.11;100.00
71504;BME280;59323;50.874;7.028;2024-01-11T18:23:26;102867.59;;;-3.16;100.00
71504;BME280;59323;50.874;7.028;2024-01-11T18:25:52;102869.66;;;-3.18;100.00
71504;BME280;59323;50.874;7.028;2024-01-11T18:28:17;102872.75;;;-3.22;100.00
71504;BME280;59323;50.874;7.028;2024-01-11T18:30:43;102862.97;;;-3.28;100.00
71504;BME280;59323;50.874;7.028;2024-01-11T18:33:08;102866.44;;;-3.27;100.00
71504;BME280;59323;50.874;7.028;2024-01-11T18:35:33;102856.25;;;-3.30;100.00
71504;BME280;59323;50.874;7.028;2024-01-11T18:37:59;102865.25;;;-3.31;100.00
71504;BME280;59323;50.874;7.028;2024-01-11T18:40:27;102875.28;;;-3.33;100.00
71504;BME280;59323;50.874;7.028;2024-01-11T18:42:53;102865.91;;;-3.36;100.00
71504;BME280;59323;50.874;7.028;2024-01-11T18:45:20;102859.56;;;-3.35;100.00
71504;BME280;59323;50.874;7.028;2024-01-11T18:47:45;102860.59;;;-3.36;100.00
71504;BME280;59323;50.874;7.028;2024-01-11T18:50:11;102854.47;;;-3.36;100.00
71504;BME280;59323;50.874;7.028;2024-01-11T18:52:36;102873.88;;;-3.36;100.00
71504;BME280;59323;50.874;7.028;2024-01-11T18:55:02;102870.78;;;-3.33;100.00
71504;BME280;59323;50.874;7.028;2024-01-11T18:57:28;102885.53;;;-3.37;100.00
71504;BME280;59323;50.874;7.028;2024-01-11T18:59:53;102888.63;;;-3.40;100.00
71504;BME280;59323;50.874;7.028;2024-01-11T19:02:21;102891.13;;;-3.45;100.00
71504;BME280;59323;50.874;7.028;2024-01-11T19:04:47;102893.19;;;-3.47;100.00
71504;BME280;59323;50.874;7.028;2024-01-11T19:07:13;102893.63;;;-3.50;100.00
71504;BME280;59323;50.874;7.028;2024-01-11T19:09:38;102893.03;;;-3.52;100.00
71504;BME280;59323;50.874;7.028;2024-01-11T19:12:03;102894.66;;;-3.51;100.00
71504;BME280;59323;50.874;7.028;2024-01-11T19:14:29;102895.91;;;-3.54;100.00
71504;BME280;59323;50.874;7.028;2024-01-11T19:16:54;102888.34;;;-3.57;100.00
71504;BME280;59323;50.874;7.028;2024-01-11T19:19:20;102899.22;;;-3.58;100.00
71504;BME280;59323;50.874;7.028;2024-01-11T19:21:49;102895.13;;;-3.61;100.00
71504;BME280;59323;50.874;7.028;2024-01-11T19:24:14;102895.56;;;-3.64;100.00
71504;BME280;59323;50.874;7.028;2024-01-11T19:26:40;102904.13;;;-3.62;100.00
71504;BME280;59323;50.874;7.028;2024-01-11T19:29:07;102902.94;;;-3.66;100.00
71504;BME280;59323;50.874;7.028;2024-01-11T19:31:33;102922.56;;;-3.67;100.00
71504;BME280;59323;50.874;7.028;2024-01-11T19:33:58;102925.66;;;-3.70;100.00
71504;BME280;59323;50.874;7.028;2024-01-11T19:36:23;102924.03;;;-3.71;100.00
71504;BME280;59323;50.874;7.028;2024-01-11T19:38:50;102909.53;;;-3.75;100.00
71504;BME280;59323;50.874;7.028;2024-01-11T19:41:22;102901.78;;;-3.76;100.00
71504;BME280;59323;50.874;7.028;2024-01-11T19:43:48;102896.25;;;-3.75;100.00
71504;BME280;59323;50.874;7.028;2024-01-11T19:46:17;102901.41;;;-3.80;100.00
71504;BME280;59323;50.874;7.028;2024-01-11T19:48:43;102909.59;;;-3.81;100.00
71504;BME280;59323;50.874;7.028;2024-01-11T19:51:12;102911.22;;;-3.80;100.00
71504;BME280;59323;50.874;7.028;2024-01-11T19:53:38;102906.94;;;-3.81;100.00
71504;BME280;59323;50.874;7.028;2024-01-11T19:56:03;102895.72;;;-3.84;100.00
71504;BME280;59323;50.874;7.028;2024-01-11T19:58:29;102889.00;;;-3.86;100.00
71504;BME280;59323;50.874;7.028;2024-01-11T20:00:55;102879.41;;;-3.87;100.00
71504;BME280;59323;50.874;7.028;2024-01-11T20:03:20;102865.31;;;-3.88;100.00
71504;BME280;59323;50.874;7.028;2024-01-11T20:05:46;102860.81;;;-3.94;100.00
71504;BME280;59323;50.874;7.028;2024-01-11T20:08:11;102858.97;;;-3.93;100.00
71504;BME280;59323;50.874;7.028;2024-01-11T20:10:43;102865.91;;;-3.92;100.00
71504;BME280;59323;50.874;7.028;2024-01-11T20:13:10;102873.47;;;-3.89;100.00
71504;BME280;59323;50.874;7.028;2024-01-11T20:15:35;102879.19;;;-3.86;100.00
71504;BME280;59323;50.874;7.028;2024-01-11T20:18:02;102878.16;;;-3.85;100.00
71504;BME280;59323;50.874;7.028;2024-01-11T20:20:33;102872.19;;;-3.80;100.00
71504;BME280;59323;50.874;7.028;2024-01-11T20:22:58;102878.91;;;-3.77;100.00
71504;BME280;59323;50.874;7.028;2024-01-11T20:25:24;102877.84;;;-3.70;100.00
71504;BME280;59323;50.874;7.028;2024-01-11T20:27:49;102875.78;;;-3.68;100.00
71504;BME280;59323;50.874;7.028;2024-01-11T20:30:15;102873.13;;;-3.68;100.00
71504;BME280;59323;50.874;7.028;2024-01-11T20:32:40;102880.81;;;-3.60;100.00
71504;BME280;59323;50.874;7.028;2024-01-11T20:35:05;102888.91;;;-3.48;100.00
71504;BME280;59323;50.874;7.028;2024-01-11T20:37:31;102894.16;;;-3.41;100.00
71504;BME280;59323;50.874;7.028;2024-01-11T20:39:56;102896.91;;;-3.30;100.00
71504;BME280;59323;50.874;7.028;2024-01-11T20:42:22;102904.06;;;-3.24;100.00
71504;BME280;59323;50.874;7.028;2024-01-11T20:44:47;102904.81;;;-3.16;100.00
71504;BME280;59323;50.874;7.028;2024-01-11T20:47:13;102888.25;;;-3.18;100.00
71504;BME280;59323;50.874;7.028;2024-01-11T20:49:38;102900.09;;;-3.14;100.00
71504;BME280;59323;50.874;7.028;2024-01-11T20:52:03;102892.53;;;-3.17;100.00
71504;BME280;59323;50.874;7.028;2024-01-11T20:54:29;102898.09;;;-3.19;100.00
71504;BME280;59323;50.874;7.028;2024-01-11T20:56:54;102905.63;;;-3.16;100.00
71504;BME280;59323;50.874;7.028;2024-01-11T20:59:20;102903.56;;;-3.14;100.00
71504;BME280;59323;50.874;7.028;2024-01-11T21:01:45;102898.41;;;-3.09;100.00
71504;BME280;59323;50.874;7.028;2024-01-11T21:04:11;102907.78;;;-3.06;100.00
71504;BME280;59323;50.874;7.028;2024-01-11T21:06:36;102897.72;;;-3.04;100.00
71504;BME280;59323;50.874;7.028;2024-01-11T21:09:01;102902.03;;;-3.03;100.00
71504;BME280;59323;50.874;7.028;2024-01-11T21:11:27;102899.50;;;-2.98;100.00
71504;BME280;59323;50.874;7.028;2024-01-11T21:13:52;102899.66;;;-2.93;100.00
71504;BME280;59323;50.874;7.028;2024-01-11T21:16:18;102904.75;;;-2.92;100.00
71504;BME280;59323;50.874;7.028;2024-01-11T21:18:43;102901.50;;;-2.94;100.00
71504;BME280;59323;50.874;7.028;2024-01-11T21:21:09;102906.16;;;-2.89;100.00
71504;BME280;59323;50.874;7.028;2024-01-11T21:23:35;102911.19;;;-2.81;100.00
71504;BME280;59323;50.874;7.028;2024-01-11T21:26:01;102900.72;;;-2.76;100.00
71504;BME280;59323;50.874;7.028;2024-01-11T21:28:26;102892.94;;;-2.77;100.00
71504;BME280;59323;50.874;7.028;2024-01-11T21:30:52;102908.03;;;-2.71;100.00
71504;BME280;59323;50.874;7.028;2024-01-11T21:33:17;102911.50;;;-2.71;100.00
71504;BME280;59323;50.874;7.028;2024-01-11T21:35:42;102919.84;;;-2.67;100.00
71504;BME280;59323;50.874;7.028;2024-01-11T21:38:08;102908.97;;;-2.66;100.00
71504;BME280;59323;50.874;7.028;2024-01-11T21:40:33;102922.38;;;-2.54;100.00
71504;BME280;59323;50.874;7.028;2024-01-11T21:42:59;102923.94;;;-2.46;100.00
71504;BME280;59323;50.874;7.028;2024-01-11T21:45:24;102921.66;;;-2.43;100.00
71504;BME280;59323;50.874;7.028;2024-01-11T21:47:50;102909.59;;;-2.45;100.00
71504;BME280;59323;50.874;7.028;2024-01-11T21:50:15;102912.53;;;-2.35;100.00
71504;BME280;59323;50.874;7.028;2024-01-11T21:52:40;102910.91;;;-2.36;100.00
71504;BME280;59323;50.874;7.028;2024-01-11T21:55:06;102907.22;;;-2.35;100.00
71504;BME280;59323;50.874;7.028;2024-01-11T21:57:32;102912.91;;;-2.32;100.00
71504;BME280;59323;50.874;7.028;2024-01-11T21:59:57;102916.97;;;-2.29;100.00
71504;BME280;59323;50.874;7.028;2024-01-11T22:02:23;102905.94;;;-2.33;100.00
71504;BME280;59323;50.874;7.028;2024-01-11T22:04:49;102914.31;;;-2.29;100.00
71504;BME280;59323;50.874;7.028;2024-01-11T22:07:14;102906.09;;;-2.28;100.00